sensor_id;sensor_type;location;lat;lon;timestamp;pressure;altitude;pressure_sealevel;temperature;humidity
57038;BME280;59942;49.304;8.256;2022-12-18T00:01:30;101720.75;;;-7.83;96.39
57038;BME280;59942;49.304;8.256;2022-12-18T00:04:03;101628.72;;;-8.41;95.64
57038;BME280;59942;49.304;8.256;2022-12-18T00:06:31;101591.59;;;-8.62;96.40
57038;BME280;59942;49.304;8.256;2022-12-18T00:08:59;101587.97;;;-8.82;96.81
57038;BME280;59942;49.304;8.256;2022-12-18T00:11:29;101686.31;;;-7.99;97.45
57038;BME280;59942;49.304;8.256;2022-12-18T00:13:59;101688.00;;;-8.15;96.90
57038;BME280;59942;49.304;8.256;2022-12-18T00:16:27;101664.56;;;-8.14;97.19
57038;BME280;59942;49.304;8.256;2022-12-18T00:18:56;101637.50;;;-8.49;97.50
57038;BME280;59942;49.304;8.256;2022-12-18T00:21:23;101501.44;;;-9.32;97.88
57038;BME280;59942;49.304;8.256;2022-12-18T00:23:50;101542.28;;;-8.75;96.79
57038;BME280;59942;49.304;8.256;2022-12-18T00:26:29;101668.47;;;-8.04;96.81
57038;BME280;59942;49.304;8.256;2022-12-18T00:29:01;101586.81;;;-8.57;96.84
57038;BME280;59942;49.304;8.256;2022-12-18T00:31:29;101699.84;;;-7.97;96.53
57038;BME280;59942;49.304;8.256;2022-12-18T00:33:56;101661.13;;;-8.16;96.41
57038;BME280;59942;49.304;8.256;2022-12-18T00:36:27;101566.28;;;-8.65;97.40
57038;BME280;59942;49.304;8.256;2022-12-18T00:38:56;101655.31;;;-8.30;96.70
57038;BME280;59942;49.304;8.256;2022-12-18T00:41:24;101701.59;;;-7.96;97.10
57038;BME280;59942;49.304;8.256;2022-12-18T00:44:11;101716.69;;;-7.65;96.87
57038;BME280;59942;49.304;8.256;2022-12-18T00:46:40;101634.63;;;-8.09;95.43
57038;BME280;59942;49.304;8.256;2022-12-18T00:49:08;101616.97;;;-8.26;95.72
57038;BME280;59942;49.304;8.256;2022-12-18T00:51:35;101723.03;;;-7.72;95.42
57038;BME280;59942;49.304;8.256;2022-12-18T00:54:02;101655.50;;;-8.27;96.81
57038;BME280;59942;49.304;8.256;2022-12-18T00:56:29;101592.75;;;-8.55;96.63
57038;BME280;59942;49.304;8.256;2022-12-18T00:58:56;101725.72;;;-7.69;96.10
57038;BME280;59942;49.304;8.256;2022-12-18T01:01:23;101607.53;;;-8.30;95.68
57038;BME280;59942;49.304;8.256;2022-12-18T01:03:50;101672.44;;;-7.93;95.48
57038;BME280;59942;49.304;8.256;2022-12-18T01:06:17;101713.22;;;-7.67;96.02
57038;BME280;59942;49.304;8.256;2022-12-18T01:08:44;101585.34;;;-8.37;95.48
57038;BME280;59942;49.304;8.256;2022-12-18T01:11:17;101692.38;;;-7.64;94.11
57038;BME280;59942;49.304;8.256;2022-12-18T01:13:44;101607.31;;;-8.18;94.49
57038;BME280;59942;49.304;8.256;2022-12-18T01:16:16;101608.13;;;-8.03;93.67
57038;BME280;59942;49.304;8.256;2022-12-18T01:18:43;101706.78;;;-7.62;95.04
57038;BME280;59942;49.304;8.256;2022-12-18T01:21:13;101687.06;;;-7.86;95.03
57038;BME280;59942;49.304;8.256;2022-12-18T01:23:41;101694.66;;;-7.69;94.15
57038;BME280;59942;49.304;8.256;2022-12-18T01:26:12;101636.94;;;-8.44;95.98
57038;BME280;59942;49.304;8.256;2022-12-18T01:28:41;101645.91;;;-8.17;95.94
57038;BME280;59942;49.304;8.256;2022-12-18T01:33:40;101717.38;;;-7.68;96.13
57038;BME280;59942;49.304;8.256;2022-12-18T01:36:08;101622.22;;;-8.38;96.48
57038;BME280;59942;49.304;8.256;2022-12-18T01:38:35;101656.88;;;-8.00;96.46
57038;BME280;59942;49.304;8.256;2022-12-18T01:41:02;101609.78;;;-8.34;96.74
57038;BME280;59942;49.304;8.256;2022-12-18T01:43:42;101617.31;;;-8.51;96.54
57038;BME280;59942;49.304;8.256;2022-12-18T01:46:09;101583.44;;;-8.58;96.85
57038;BME280;59942;49.304;8.256;2022-12-18T01:48:37;101603.53;;;-8.58;96.65
57038;BME280;59942;49.304;8.256;2022-12-18T01:51:08;101696.09;;;-7.89;96.43
57038;BME280;59942;49.304;8.256;2022-12-18T01:53:37;101659.06;;;-8.23;97.23
57038;BME280;59942;49.304;8.256;2022-12-18T01:56:06;101600.31;;;-8.55;97.28
57038;BME280;59942;49.304;8.256;2022-12-18T01:58:44;101692.13;;;-8.00;97.50
57038;BME280;59942;49.304;8.256;2022-12-18T02:01:16;101692.56;;;-7.93;97.59
57038;BME280;59942;49.304;8.256;2022-12-18T02:03:43;101690.31;;;-8.03;97.58
57038;BME280;59942;49.304;8.256;2022-12-18T02:06:20;101531.47;;;-9.03;97.76
57038;BME280;59942;49.304;8.256;2022-12-18T02:14:17;101667.31;;;-7.94;95.97
57038;BME280;59942;49.304;8.256;2022-12-18T02:16:58;101730.72;;;-7.85;97.62
57038;BME280;59942;49.304;8.256;2022-12-18T02:28:00;101606.44;;;-8.66;98.00
57038;BME280;59942;49.304;8.256;2022-12-18T02:30:32;101677.69;;;-8.20;97.44
57038;BME280;59942;49.304;8.256;2022-12-18T02:33:04;101592.44;;;-8.46;97.59
57038;BME280;59942;49.304;8.256;2022-12-18T02:35:34;101584.03;;;-8.62;96.90
57038;BME280;59942;49.304;8.256;2022-12-18T02:38:04;101609.06;;;-8.17;95.78
57038;BME280;59942;49.304;8.256;2022-12-18T02:40:31;101677.63;;;-7.73;95.73
57038;BME280;59942;49.304;8.256;2022-12-18T02:43:12;101659.91;;;-8.23;95.44
57038;BME280;59942;49.304;8.256;2022-12-18T02:45:57;101715.94;;;-7.79;96.14
57038;BME280;59942;49.304;8.256;2022-12-18T02:48:29;101691.19;;;-7.71;96.00
57038;BME280;59942;49.304;8.256;2022-12-18T02:51:25;101742.34;;;-7.56;95.44
57038;BME280;59942;49.304;8.256;2022-12-18T02:54:35;101720.06;;;-7.64;95.40
57038;BME280;59942;49.304;8.256;2022-12-18T02:57:15;101720.22;;;-7.61;95.71
57038;BME280;59942;49.304;8.256;2022-12-18T02:59:58;101608.34;;;-8.14;95.06
57038;BME280;59942;49.304;8.256;2022-12-18T03:05:12;101713.41;;;-7.47;95.44
57038;BME280;59942;49.304;8.256;2022-12-18T03:10:25;101522.56;;;-8.67;95.24
57038;BME280;59942;49.304;8.256;2022-12-18T03:13:04;101647.50;;;-8.20;96.07
57038;BME280;59942;49.304;8.256;2022-12-18T03:15:36;101610.19;;;-8.27;95.61
57038;BME280;59942;49.304;8.256;2022-12-18T03:18:27;101711.19;;;-7.58;95.29
57038;BME280;59942;49.304;8.256;2022-12-18T03:20:59;101689.06;;;-7.63;94.88
57038;BME280;59942;49.304;8.256;2022-12-18T03:23:33;101677.19;;;-7.97;94.99
57038;BME280;59942;49.304;8.256;2022-12-18T03:26:06;101642.69;;;-8.15;95.62
57038;BME280;59942;49.304;8.256;2022-12-18T03:28:39;101664.03;;;-7.77;95.23
57038;BME280;59942;49.304;8.256;2022-12-18T03:31:11;101697.72;;;-7.58;96.01
57038;BME280;59942;49.304;8.256;2022-12-18T03:33:47;101510.13;;;-8.80;95.46
57038;BME280;59942;49.304;8.256;2022-12-18T03:36:17;101629.50;;;-8.11;95.91
57038;BME280;59942;49.304;8.256;2022-12-18T03:38:44;101581.59;;;-8.60;96.55
57038;BME280;59942;49.304;8.256;2022-12-18T03:49:14;101509.19;;;-8.97;96.01
57038;BME280;59942;49.304;8.256;2022-12-18T03:51:54;101551.66;;;-8.39;95.37
57038;BME280;59942;49.304;8.256;2022-12-18T03:54:23;101668.31;;;-8.07;95.93
57038;BME280;59942;49.304;8.256;2022-12-18T03:56:58;101593.13;;;-8.49;96.36
57038;BME280;59942;49.304;8.256;2022-12-18T03:59:28;101564.56;;;-8.81;95.81
57038;BME280;59942;49.304;8.256;2022-12-18T04:01:57;101681.13;;;-8.03;96.34
57038;BME280;59942;49.304;8.256;2022-12-18T04:04:27;101557.00;;;-8.66;95.68
57038;BME280;59942;49.304;8.256;2022-12-18T04:06:56;101510.59;;;-9.02;95.60
57038;BME280;59942;49.304;8.256;2022-12-18T04:09:24;101579.41;;;-8.54;95.77
57038;BME280;59942;49.304;8.256;2022-12-18T04:11:51;101707.91;;;-7.88;96.40
57038;BME280;59942;49.304;8.256;2022-12-18T04:14:19;101710.34;;;-7.90;96.51
57038;BME280;59942;49.304;8.256;2022-12-18T04:16:46;101705.97;;;-8.09;96.70
57038;BME280;59942;49.304;8.256;2022-12-18T04:26:17;101638.25;;;-8.04;95.71
57038;BME280;59942;49.304;8.256;2022-12-18T04:28:43;101494.34;;;-8.93;95.27
57038;BME280;59942;49.304;8.256;2022-12-18T04:31:10;101574.75;;;-8.31;94.65
57038;BME280;59942;49.304;8.256;2022-12-18T04:33:37;101713.50;;;-7.77;95.22
57038;BME280;59942;49.304;8.256;2022-12-18T04:36:05;101650.47;;;-7.95;93.52
57038;BME280;59942;49.304;8.256;2022-12-18T04:38:32;101600.97;;;-8.11;93.10
57038;BME280;59942;49.304;8.256;2022-12-18T04:41:00;101586.78;;;-8.26;93.15
57038;BME280;59942;49.304;8.256;2022-12-18T04:43:26;101577.53;;;-8.42;92.94
57038;BME280;59942;49.304;8.256;2022-12-18T04:46:06;101710.22;;;-7.60;93.58
57038;BME280;59942;49.304;8.256;2022-12-18T04:48:33;101709.22;;;-7.63;93.08
57038;BME280;59942;49.304;8.256;2022-12-18T04:51:00;101700.53;;;-7.69;92.97
57038;BME280;59942;49.304;8.256;2022-12-18T04:53:28;101629.03;;;-8.04;92.64
57038;BME280;59942;49.304;8.256;2022-12-18T04:56:12;101661.31;;;-7.80;91.29
57038;BME280;59942;49.304;8.256;2022-12-18T04:58:41;101565.53;;;-8.47;91.28
57038;BME280;59942;49.304;8.256;2022-12-18T05:01:10;101590.00;;;-8.28;89.99
57038;BME280;59942;49.304;8.256;2022-12-18T05:03:38;101679.25;;;-7.90;90.26
57038;BME280;59942;49.304;8.256;2022-12-18T05:06:06;101605.47;;;-8.37;90.77
57038;BME280;59942;49.304;8.256;2022-12-18T05:08:33;101709.50;;;-7.74;91.32
57038;BME280;59942;49.304;8.256;2022-12-18T05:11:04;101695.91;;;-8.09;91.61
57038;BME280;59942;49.304;8.256;2022-12-18T05:13:32;101648.63;;;-8.29;91.57
57038;BME280;59942;49.304;8.256;2022-12-18T05:16:00;101665.13;;;-8.66;92.74
57038;BME280;59942;49.304;8.256;2022-12-18T05:18:27;101671.72;;;-8.68;94.15
57038;BME280;59942;49.304;8.256;2022-12-18T05:20:54;101704.66;;;-8.32;94.19
57038;BME280;59942;49.304;8.256;2022-12-18T05:23:22;101712.13;;;-8.18;93.70
57038;BME280;59942;49.304;8.256;2022-12-18T05:25:55;101687.25;;;-8.29;92.76
57038;BME280;59942;49.304;8.256;2022-12-18T05:28:24;101646.97;;;-8.45;91.40
57038;BME280;59942;49.304;8.256;2022-12-18T05:30:53;101702.41;;;-8.12;90.50
57038;BME280;59942;49.304;8.256;2022-12-18T05:33:21;101710.91;;;-8.25;89.89
57038;BME280;59942;49.304;8.256;2022-12-18T05:35:53;101664.69;;;-8.42;90.56
57038;BME280;59942;49.304;8.256;2022-12-18T05:38:21;101677.19;;;-8.44;88.85
57038;BME280;59942;49.304;8.256;2022-12-18T05:40:49;101703.97;;;-8.29;88.56
57038;BME280;59942;49.304;8.256;2022-12-18T05:43:17;101707.47;;;-8.27;88.54
57038;BME280;59942;49.304;8.256;2022-12-18T05:45:48;101646.88;;;-8.77;90.17
57038;BME280;59942;49.304;8.256;2022-12-18T05:48:16;101683.84;;;-8.61;89.79
57038;BME280;59942;49.304;8.256;2022-12-18T05:50:45;101569.97;;;-9.19;89.33
57038;BME280;59942;49.304;8.256;2022-12-18T05:53:14;101708.69;;;-8.35;88.25
57038;BME280;59942;49.304;8.256;2022-12-18T05:55:42;101650.13;;;-8.79;87.80
57038;BME280;59942;49.304;8.256;2022-12-18T05:58:11;101624.63;;;-9.00;87.51
57038;BME280;59942;49.304;8.256;2022-12-18T06:00:41;101726.34;;;-8.50;87.78
57038;BME280;59942;49.304;8.256;2022-12-18T06:03:09;101534.03;;;-9.77;87.71
57038;BME280;59942;49.304;8.256;2022-12-18T06:05:39;101739.53;;;-8.54;86.81
57038;BME280;59942;49.304;8.256;2022-12-18T06:08:07;101698.81;;;-8.77;87.84
57038;BME280;59942;49.304;8.256;2022-12-18T06:10:34;101658.16;;;-9.15;87.82
57038;BME280;59942;49.304;8.256;2022-12-18T06:13:01;101405.16;;;-10.65;86.81
57038;BME280;59942;49.304;8.256;2022-12-18T06:15:28;101725.16;;;-8.85;87.00
57038;BME280;59942;49.304;8.256;2022-12-18T06:17:55;101670.72;;;-9.15;87.16
57038;BME280;59942;49.304;8.256;2022-12-18T06:20:22;101648.06;;;-9.30;88.73
57038;BME280;59942;49.304;8.256;2022-12-18T06:22:53;101594.75;;;-9.69;89.23
57038;BME280;59942;49.304;8.256;2022-12-18T06:25:20;101546.56;;;-9.91;87.59
57038;BME280;59942;49.304;8.256;2022-12-18T06:27:47;101597.59;;;-9.63;86.94
57038;BME280;59942;49.304;8.256;2022-12-18T06:30:15;101734.53;;;-8.83;86.82
57038;BME280;59942;49.304;8.256;2022-12-18T06:32:42;101635.75;;;-9.40;88.36
57038;BME280;59942;49.304;8.256;2022-12-18T06:35:10;101562.75;;;-9.86;86.68
57038;BME280;59942;49.304;8.256;2022-12-18T06:37:37;101563.53;;;-9.87;86.95
57038;BME280;59942;49.304;8.256;2022-12-18T06:40:04;101705.13;;;-9.14;86.57
57038;BME280;59942;49.304;8.256;2022-12-18T06:42:32;101616.28;;;-9.72;86.02
57038;BME280;59942;49.304;8.256;2022-12-18T06:44:58;101606.13;;;-9.74;85.90
57038;BME280;59942;49.304;8.256;2022-12-18T06:47:26;101615.41;;;-9.73;85.83
57038;BME280;59942;49.304;8.256;2022-12-18T06:49:53;101547.41;;;-10.19;87.19
57038;BME280;59942;49.304;8.256;2022-12-18T06:52:19;101681.75;;;-9.26;86.53
57038;BME280;59942;49.304;8.256;2022-12-18T06:54:46;101737.53;;;-9.03;87.72
57038;BME280;59942;49.304;8.256;2022-12-18T06:57:13;101490.53;;;-10.62;88.44
57038;BME280;59942;49.304;8.256;2022-12-18T06:59:40;101708.38;;;-9.30;90.26
57038;BME280;59942;49.304;8.256;2022-12-18T07:02:11;101628.78;;;-9.87;87.05
57038;BME280;59942;49.304;8.256;2022-12-18T07:04:39;101676.06;;;-9.52;86.55
57038;BME280;59942;49.304;8.256;2022-12-18T07:07:06;101654.19;;;-9.68;86.87
57038;BME280;59942;49.304;8.256;2022-12-18T07:09:33;101649.97;;;-9.69;88.57
57038;BME280;59942;49.304;8.256;2022-12-18T07:12:00;101786.47;;;-8.83;89.69
57038;BME280;59942;49.304;8.256;2022-12-18T07:14:27;101597.50;;;-9.92;90.09
57038;BME280;59942;49.304;8.256;2022-12-18T07:16:55;101620.75;;;-9.95;90.90
57038;BME280;59942;49.304;8.256;2022-12-18T07:19:24;101789.25;;;-8.79;91.56
57038;BME280;59942;49.304;8.256;2022-12-18T07:21:51;101684.16;;;-9.43;89.59
57038;BME280;59942;49.304;8.256;2022-12-18T07:24:19;101736.53;;;-9.49;91.58
57038;BME280;59942;49.304;8.256;2022-12-18T07:26:46;101722.91;;;-9.52;91.97
57038;BME280;59942;49.304;8.256;2022-12-18T07:29:13;101610.53;;;-9.98;92.41
57038;BME280;59942;49.304;8.256;2022-12-18T07:31:40;101788.56;;;-9.04;92.03
57038;BME280;59942;49.304;8.256;2022-12-18T07:34:14;101786.13;;;-8.89;92.17
57038;BME280;59942;49.304;8.256;2022-12-18T07:36:42;101788.13;;;-9.12;90.55
57038;BME280;59942;49.304;8.256;2022-12-18T07:39:10;101807.31;;;-8.99;92.83
57038;BME280;59942;49.304;8.256;2022-12-18T07:41:38;101648.66;;;-9.90;91.96
57038;BME280;59942;49.304;8.256;2022-12-18T07:44:12;101674.09;;;-9.71;91.84
57038;BME280;59942;49.304;8.256;2022-12-18T07:46:39;101719.44;;;-9.54;89.55
57038;BME280;59942;49.304;8.256;2022-12-18T07:49:06;101653.38;;;-9.82;88.58
57038;BME280;59942;49.304;8.256;2022-12-18T07:51:33;101708.00;;;-9.78;90.67
57038;BME280;59942;49.304;8.256;2022-12-18T07:54:00;101752.59;;;-9.32;91.45
57038;BME280;59942;49.304;8.256;2022-12-18T07:56:27;101695.16;;;-9.69;89.48
57038;BME280;59942;49.304;8.256;2022-12-18T07:58:57;101637.41;;;-10.10;88.51
57038;BME280;59942;49.304;8.256;2022-12-18T08:01:25;101813.56;;;-8.93;89.13
57038;BME280;59942;49.304;8.256;2022-12-18T08:03:52;101694.09;;;-9.72;86.86
57038;BME280;59942;49.304;8.256;2022-12-18T08:06:19;101774.78;;;-9.11;86.55
57038;BME280;59942;49.304;8.256;2022-12-18T08:08:54;101822.94;;;-8.90;85.15
57038;BME280;59942;49.304;8.256;2022-12-18T08:11:24;101821.41;;;-9.01;84.18
57038;BME280;59942;49.304;8.256;2022-12-18T08:13:51;101680.69;;;-9.73;84.48
57038;BME280;59942;49.304;8.256;2022-12-18T08:16:19;101820.59;;;-8.87;85.84
57038;BME280;59942;49.304;8.256;2022-12-18T08:18:46;101627.16;;;-10.00;84.69
57038;BME280;59942;49.304;8.256;2022-12-18T08:21:26;101562.88;;;-10.26;85.17
57038;BME280;59942;49.304;8.256;2022-12-18T08:23:56;101814.22;;;-8.67;85.27
57038;BME280;59942;49.304;8.256;2022-12-18T08:26:27;101751.56;;;-9.07;83.43
57038;BME280;59942;49.304;8.256;2022-12-18T08:28:56;101681.09;;;-9.52;83.33
57038;BME280;59942;49.304;8.256;2022-12-18T08:31:26;101778.94;;;-8.83;84.50
57038;BME280;59942;49.304;8.256;2022-12-18T08:33:53;101830.22;;;-8.66;86.67
57038;BME280;59942;49.304;8.256;2022-12-18T08:36:23;101809.03;;;-8.70;87.05
57038;BME280;59942;49.304;8.256;2022-12-18T08:38:52;101738.31;;;-9.04;85.83
57038;BME280;59942;49.304;8.256;2022-12-18T08:41:19;101806.09;;;-8.63;85.23
57038;BME280;59942;49.304;8.256;2022-12-18T08:43:47;101556.22;;;-9.98;86.63
57038;BME280;59942;49.304;8.256;2022-12-18T08:46:38;101651.88;;;-9.36;88.75
57038;BME280;59942;49.304;8.256;2022-12-18T08:49:06;101778.44;;;-8.48;88.76
57038;BME280;59942;49.304;8.256;2022-12-18T08:51:34;101783.22;;;-8.38;87.18
57038;BME280;59942;49.304;8.256;2022-12-18T08:54:01;101757.78;;;-8.42;87.00
57038;BME280;59942;49.304;8.256;2022-12-18T08:56:29;101621.22;;;-9.16;86.71
57038;BME280;59942;49.304;8.256;2022-12-18T08:58:56;101722.69;;;-8.56;87.14
57038;BME280;59942;49.304;8.256;2022-12-18T09:01:24;101790.91;;;-8.20;89.00
57038;BME280;59942;49.304;8.256;2022-12-18T09:03:51;101789.34;;;-8.03;89.25
57038;BME280;59942;49.304;8.256;2022-12-18T09:06:21;101722.63;;;-8.41;89.14
57038;BME280;59942;49.304;8.256;2022-12-18T09:08:50;101630.78;;;-8.80;88.35
57038;BME280;59942;49.304;8.256;2022-12-18T09:11:25;101746.66;;;-8.01;88.54
57038;BME280;59942;49.304;8.256;2022-12-18T09:13:54;101641.88;;;-8.30;87.61
57038;BME280;59942;49.304;8.256;2022-12-18T09:16:23;101652.75;;;-8.15;86.78
57038;BME280;59942;49.304;8.256;2022-12-18T09:18:59;101661.66;;;-8.22;87.24
57038;BME280;59942;49.304;8.256;2022-12-18T09:21:29;101790.72;;;-7.46;87.78
57038;BME280;59942;49.304;8.256;2022-12-18T09:23:57;101644.88;;;-8.21;86.67
57038;BME280;59942;49.304;8.256;2022-12-18T09:26:25;101796.91;;;-6.92;86.01
57038;BME280;59942;49.304;8.256;2022-12-18T09:28:53;101741.84;;;-7.01;84.49
57038;BME280;59942;49.304;8.256;2022-12-18T09:31:22;101771.75;;;-6.57;84.47
57038;BME280;59942;49.304;8.256;2022-12-18T09:33:50;101644.19;;;-7.54;84.30
57038;BME280;59942;49.304;8.256;2022-12-18T09:36:18;101653.06;;;-7.28;83.35
57038;BME280;59942;49.304;8.256;2022-12-18T09:38:47;101696.63;;;-6.97;82.86
57038;BME280;59942;49.304;8.256;2022-12-18T09:41:39;101758.00;;;-6.46;83.50
57038;BME280;59942;49.304;8.256;2022-12-18T09:47:14;101823.28;;;-6.01;82.87
57038;BME280;59942;49.304;8.256;2022-12-18T09:49:46;101700.19;;;-6.76;82.91
57038;BME280;59942;49.304;8.256;2022-12-18T09:52:34;101709.56;;;-7.41;85.34
57038;BME280;59942;49.304;8.256;2022-12-18T09:55:13;101761.91;;;-6.53;84.76
57038;BME280;59942;49.304;8.256;2022-12-18T09:57:58;101697.03;;;-6.72;82.95
57038;BME280;59942;49.304;8.256;2022-12-18T10:00:28;101821.72;;;-6.34;83.29
57038;BME280;59942;49.304;8.256;2022-12-18T10:03:08;101668.06;;;-7.14;84.65
57038;BME280;59942;49.304;8.256;2022-12-18T10:14:23;101778.84;;;-5.98;82.36
57038;BME280;59942;49.304;8.256;2022-12-18T10:22:42;101817.97;;;-5.88;83.24
57038;BME280;59942;49.304;8.256;2022-12-18T10:25:23;101786.31;;;-5.63;84.22
57038;BME280;59942;49.304;8.256;2022-12-18T10:27:58;101678.84;;;-7.17;83.56
57038;BME280;59942;49.304;8.256;2022-12-18T10:30:27;101669.97;;;-6.92;84.40
57038;BME280;59942;49.304;8.256;2022-12-18T10:32:54;101698.41;;;-6.44;85.75
57038;BME280;59942;49.304;8.256;2022-12-18T10:35:25;101661.00;;;-6.69;83.92
57038;BME280;59942;49.304;8.256;2022-12-18T10:41:03;101778.91;;;-5.41;82.89
57038;BME280;59942;49.304;8.256;2022-12-18T10:43:37;101777.19;;;-5.42;82.87
57038;BME280;59942;49.304;8.256;2022-12-18T10:46:16;101780.84;;;-5.35;82.74
57038;BME280;59942;49.304;8.256;2022-12-18T10:51:39;101711.09;;;-5.69;83.38
57038;BME280;59942;49.304;8.256;2022-12-18T10:54:18;101637.66;;;-6.47;81.71
57038;BME280;59942;49.304;8.256;2022-12-18T10:56:47;101759.69;;;-5.37;84.26
57038;BME280;59942;49.304;8.256;2022-12-18T10:59:17;101692.56;;;-5.50;81.91
57038;BME280;59942;49.304;8.256;2022-12-18T11:01:58;101740.81;;;-5.26;82.77
57038;BME280;59942;49.304;8.256;2022-12-18T11:04:28;101685.91;;;-5.48;82.29
57038;BME280;59942;49.304;8.256;2022-12-18T11:07:04;101806.25;;;-4.34;82.00
57038;BME280;59942;49.304;8.256;2022-12-18T11:10:01;101751.06;;;-4.62;82.55
57038;BME280;59942;49.304;8.256;2022-12-18T11:12:29;101635.16;;;-5.52;82.46
57038;BME280;59942;49.304;8.256;2022-12-18T11:14:58;101669.69;;;-5.53;82.12
57038;BME280;59942;49.304;8.256;2022-12-18T11:17:33;101793.53;;;-4.76;83.15
57038;BME280;59942;49.304;8.256;2022-12-18T11:20:04;101796.84;;;-4.58;80.87
57038;BME280;59942;49.304;8.256;2022-12-18T11:22:35;101798.06;;;-4.28;83.12
57038;BME280;59942;49.304;8.256;2022-12-18T11:25:18;101762.56;;;-4.49;82.08
57038;BME280;59942;49.304;8.256;2022-12-18T11:28:03;101509.88;;;-5.67;83.79
57038;BME280;59942;49.304;8.256;2022-12-18T11:30:36;101679.00;;;-4.72;84.98
57038;BME280;59942;49.304;8.256;2022-12-18T11:38:35;101773.03;;;-4.82;80.83
57038;BME280;59942;49.304;8.256;2022-12-18T11:43:35;101732.31;;;-4.46;85.07
57038;BME280;59942;49.304;8.256;2022-12-18T11:49:34;101759.63;;;-3.97;82.93
57038;BME280;59942;49.304;8.256;2022-12-18T11:52:03;101763.22;;;-4.13;79.03
57038;BME280;59942;49.304;8.256;2022-12-18T11:54:33;101687.75;;;-4.43;85.27
57038;BME280;59942;49.304;8.256;2022-12-18T11:57:10;101697.94;;;-4.20;86.87
57038;BME280;59942;49.304;8.256;2022-12-18T11:59:48;101758.00;;;-4.16;85.91
57038;BME280;59942;49.304;8.256;2022-12-18T12:05:58;101688.72;;;-4.39;82.56
57038;BME280;59942;49.304;8.256;2022-12-18T12:11:16;101735.88;;;-3.99;86.42
57038;BME280;59942;49.304;8.256;2022-12-18T12:14:14;101634.63;;;-4.41;83.46
57038;BME280;59942;49.304;8.256;2022-12-18T12:38:55;101653.53;;;-4.33;84.33
57038;BME280;59942;49.304;8.256;2022-12-18T12:41:26;101729.56;;;-3.88;84.62
57038;BME280;59942;49.304;8.256;2022-12-18T12:44:22;101692.50;;;-3.86;87.83
57038;BME280;59942;49.304;8.256;2022-12-18T12:46:54;101738.09;;;-3.40;87.73
57038;BME280;59942;49.304;8.256;2022-12-18T12:49:26;101642.94;;;-3.77;90.29
57038;BME280;59942;49.304;8.256;2022-12-18T12:52:05;101568.94;;;-4.38;84.81
57038;BME280;59942;49.304;8.256;2022-12-18T12:54:33;101696.31;;;-3.50;87.09
57038;BME280;59942;49.304;8.256;2022-12-18T13:00:05;101718.84;;;-3.58;85.10
57038;BME280;59942;49.304;8.256;2022-12-18T13:02:38;101622.13;;;-3.93;87.74
57038;BME280;59942;49.304;8.256;2022-12-18T13:05:31;101692.03;;;-3.75;83.38
57038;BME280;59942;49.304;8.256;2022-12-18T13:08:07;101505.75;;;-5.24;82.21
57038;BME280;59942;49.304;8.256;2022-12-18T13:10:43;101677.63;;;-3.76;89.51
57038;BME280;59942;49.304;8.256;2022-12-18T13:13:12;101656.06;;;-3.88;87.19
57038;BME280;59942;49.304;8.256;2022-12-18T13:16:06;101608.13;;;-4.06;87.23
57038;BME280;59942;49.304;8.256;2022-12-18T13:18:34;101572.16;;;-4.20;89.65
57038;BME280;59942;49.304;8.256;2022-12-18T13:24:25;101584.34;;;-4.09;88.67
57038;BME280;59942;49.304;8.256;2022-12-18T13:26:53;101688.19;;;-3.64;88.18
57038;BME280;59942;49.304;8.256;2022-12-18T13:29:43;101683.53;;;-3.53;87.83
57038;BME280;59942;49.304;8.256;2022-12-18T13:32:23;101641.72;;;-3.64;91.08
57038;BME280;59942;49.304;8.256;2022-12-18T13:37:53;101567.31;;;-4.59;82.43
57038;BME280;59942;49.304;8.256;2022-12-18T13:43:26;101670.66;;;-3.82;86.84
57038;BME280;59942;49.304;8.256;2022-12-18T13:46:05;101670.94;;;-3.97;84.95
57038;BME280;59942;49.304;8.256;2022-12-18T13:48:36;101593.66;;;-4.54;84.37
57038;BME280;59942;49.304;8.256;2022-12-18T13:51:09;101658.34;;;-3.95;89.89
57038;BME280;59942;49.304;8.256;2022-12-18T13:54:01;101665.22;;;-4.14;84.01
57038;BME280;59942;49.304;8.256;2022-12-18T13:56:33;101677.91;;;-4.35;82.85
57038;BME280;59942;49.304;8.256;2022-12-18T14:01:34;101648.34;;;-4.78;84.70
57038;BME280;59942;49.304;8.256;2022-12-18T14:04:16;101664.13;;;-4.43;87.27
57038;BME280;59942;49.304;8.256;2022-12-18T14:06:46;101668.28;;;-4.44;86.38
57038;BME280;59942;49.304;8.256;2022-12-18T14:09:15;101534.47;;;-5.01;88.34
57038;BME280;59942;49.304;8.256;2022-12-18T14:11:48;101681.94;;;-4.61;85.88
57038;BME280;59942;49.304;8.256;2022-12-18T14:14:17;101622.88;;;-4.62;88.56
57038;BME280;59942;49.304;8.256;2022-12-18T14:16:46;101617.94;;;-4.59;87.30
57038;BME280;59942;49.304;8.256;2022-12-18T14:19:17;101666.88;;;-4.37;85.67
57038;BME280;59942;49.304;8.256;2022-12-18T14:21:48;101641.88;;;-4.50;87.96
57038;BME280;59942;49.304;8.256;2022-12-18T14:24:18;101658.28;;;-4.41;88.34
57038;BME280;59942;49.304;8.256;2022-12-18T14:26:50;101545.22;;;-5.07;86.91
57038;BME280;59942;49.304;8.256;2022-12-18T14:32:13;101547.59;;;-4.89;90.93
57038;BME280;59942;49.304;8.256;2022-12-18T14:34:52;101659.06;;;-4.21;90.63
57038;BME280;59942;49.304;8.256;2022-12-18T14:37:23;101580.31;;;-4.93;88.17
57038;BME280;59942;49.304;8.256;2022-12-18T14:39:55;101522.25;;;-5.32;86.94
57038;BME280;59942;49.304;8.256;2022-12-18T14:42:25;101677.28;;;-4.52;87.16
57038;BME280;59942;49.304;8.256;2022-12-18T14:48:19;101674.53;;;-4.78;86.45
57038;BME280;59942;49.304;8.256;2022-12-18T14:51:01;101605.09;;;-5.06;86.41
57038;BME280;59942;49.304;8.256;2022-12-18T14:53:44;101607.00;;;-5.00;88.78
57038;BME280;59942;49.304;8.256;2022-12-18T14:58:54;101649.41;;;-4.94;85.58
57038;BME280;59942;49.304;8.256;2022-12-18T15:01:30;101645.72;;;-5.02;86.27
57038;BME280;59942;49.304;8.256;2022-12-18T15:04:00;101503.59;;;-5.98;87.46
57038;BME280;59942;49.304;8.256;2022-12-18T15:06:34;101641.44;;;-5.03;90.21
57038;BME280;59942;49.304;8.256;2022-12-18T15:09:05;101563.78;;;-5.47;90.30
57038;BME280;59942;49.304;8.256;2022-12-18T15:11:47;101515.66;;;-5.69;89.33
57038;BME280;59942;49.304;8.256;2022-12-18T15:14:38;101636.13;;;-4.89;89.75
57038;BME280;59942;49.304;8.256;2022-12-18T15:17:20;101643.84;;;-4.85;89.38